sensor_id;sensor_type;location;lat;lon;timestamp;pressure;altitude;pressure_sealevel;temperature;humidity
72414;BME280;60995;52.154;4.498;2023-03-15T00:00:59;101137.13;;;5.37;75.23
72414;BME280;60995;52.154;4.498;2023-03-15T00:03:16;101142.09;;;5.14;74.43
72414;BME280;60995;52.154;4.498;2023-03-15T00:05:33;101142.19;;;5.13;73.92
72414;BME280;60995;52.154;4.498;2023-03-15T00:07:49;101145.13;;;4.94;74.46
72414;BME280;60995;52.154;4.498;2023-03-15T00:10:06;101149.44;;;4.82;74.61
72414;BME280;60995;52.154;4.498;2023-03-15T00:12:23;101148.78;;;4.78;74.84
72414;BME280;60995;52.154;4.498;2023-03-15T00:14:39;101144.72;;;4.71;75.79
72414;BME280;60995;52.154;4.498;2023-03-15T00:16:55;101154.16;;;4.78;75.80
72414;BME280;60995;52.154;4.498;2023-03-15T00:19:12;101154.44;;;4.74;76.57
72414;BME280;60995;52.154;4.498;2023-03-15T00:21:29;101163.53;;;4.71;76.86
72414;BME280;60995;52.154;4.498;2023-03-15T00:23:45;101171.97;;;4.65;77.29
72414;BME280;60995;52.154;4.498;2023-03-15T00:26:02;101163.09;;;4.49;77.43
72414;BME280;60995;52.154;4.498;2023-03-15T00:28:18;101167.78;;;4.45;77.00
72414;BME280;60995;52.154;4.498;2023-03-15T00:30:35;101169.34;;;4.33;77.68
72414;BME280;60995;52.154;4.498;2023-03-15T00:32:52;101171.00;;;4.36;77.91
72414;BME280;60995;52.154;4.498;2023-03-15T00:35:10;101175.88;;;4.29;78.22
72414;BME280;60995;52.154;4.498;2023-03-15T00:37:28;101170.16;;;4.19;78.53
72414;BME280;60995;52.154;4.498;2023-03-15T00:39:47;101174.38;;;4.23;78.51
72414;BME280;60995;52.154;4.498;2023-03-15T00:42:03;101170.16;;;4.19;78.45
72414;BME280;60995;52.154;4.498;2023-03-15T00:44:20;101170.06;;;4.21;78.37
72414;BME280;60995;52.154;4.498;2023-03-15T00:46:36;101171.00;;;4.20;78.78
72414;BME280;60995;52.154;4.498;2023-03-15T00:48:52;101162.81;;;4.07;78.65
72414;BME280;60995;52.154;4.498;2023-03-15T00:51:11;101155.16;;;4.15;79.09
72414;BME280;60995;52.154;4.498;2023-03-15T00:53:29;101166.16;;;4.10;79.74
72414;BME280;60995;52.154;4.498;2023-03-15T00:55:46;101172.50;;;4.09;79.92
72414;BME280;60995;52.154;4.498;2023-03-15T00:58:02;101183.06;;;4.12;80.00
72414;BME280;60995;52.154;4.498;2023-03-15T01:00:20;101176.28;;;4.05;79.96
72414;BME280;60995;52.154;4.498;2023-03-15T01:02:40;101165.22;;;4.11;79.65
72414;BME280;60995;52.154;4.498;2023-03-15T01:04:56;101178.53;;;4.13;79.69
72414;BME280;60995;52.154;4.498;2023-03-15T01:07:12;101183.41;;;4.06;80.24
72414;BME280;60995;52.154;4.498;2023-03-15T01:09:29;101191.38;;;4.08;80.48
72414;BME280;60995;52.154;4.498;2023-03-15T01:11:46;101197.63;;;4.08;80.65
72414;BME280;60995;52.154;4.498;2023-03-15T01:14:02;101195.53;;;4.13;80.90
72414;BME280;60995;52.154;4.498;2023-03-15T01:16:23;101199.19;;;4.12;80.08
72414;BME280;60995;52.154;4.498;2023-03-15T01:18:40;101206.28;;;4.13;80.48
72414;BME280;60995;52.154;4.498;2023-03-15T01:20:57;101209.72;;;4.16;80.34
72414;BME280;60995;52.154;4.498;2023-03-15T01:23:14;101215.81;;;4.19;80.29
72414;BME280;60995;52.154;4.498;2023-03-15T01:25:30;101214.75;;;4.22;80.35
72414;BME280;60995;52.154;4.498;2023-03-15T01:27:46;101222.03;;;4.20;80.14
72414;BME280;60995;52.154;4.498;2023-03-15T01:30:03;101230.03;;;4.21;80.24
72414;BME280;60995;52.154;4.498;2023-03-15T01:32:22;101223.06;;;4.17;79.99
72414;BME280;60995;52.154;4.498;2023-03-15T01:34:39;101238.34;;;4.17;80.17
72414;BME280;60995;52.154;4.498;2023-03-15T01:36:55;101233.81;;;4.17;80.26
72414;BME280;60995;52.154;4.498;2023-03-15T01:39:12;101246.38;;;4.17;80.37
72414;BME280;60995;52.154;4.498;2023-03-15T01:41:28;101240.94;;;4.18;80.66
72414;BME280;60995;52.154;4.498;2023-03-15T01:43:45;101248.03;;;4.19;80.11
72414;BME280;60995;52.154;4.498;2023-03-15T01:46:13;101249.69;;;4.22;80.49
72414;BME280;60995;52.154;4.498;2023-03-15T01:48:41;101257.13;;;4.17;80.47
72414;BME280;60995;52.154;4.498;2023-03-15T01:51:05;101251.94;;;4.13;80.54
72414;BME280;60995;52.154;4.498;2023-03-15T01:53:31;101252.03;;;4.12;80.38
72414;BME280;60995;52.154;4.498;2023-03-15T01:55:49;101255.66;;;4.11;80.34
72414;BME280;60995;52.154;4.498;2023-03-15T01:58:08;101258.44;;;4.09;80.06
72414;BME280;60995;52.154;4.498;2023-03-15T02:00:25;101265.09;;;4.02;79.76
72414;BME280;60995;52.154;4.498;2023-03-15T02:05:09;101271.31;;;4.03;80.48
72414;BME280;60995;52.154;4.498;2023-03-15T02:07:27;101268.38;;;4.07;80.28
72414;BME280;60995;52.154;4.498;2023-03-15T02:10:09;101270.91;;;4.10;79.76
72414;BME280;60995;52.154;4.498;2023-03-15T02:12:31;101276.13;;;4.13;79.79
72414;BME280;60995;52.154;4.498;2023-03-15T02:14:51;101272.97;;;4.05;79.72
72414;BME280;60995;52.154;4.498;2023-03-15T02:17:09;101276.13;;;4.13;79.57
72414;BME280;60995;52.154;4.498;2023-03-15T02:19:57;101277.31;;;4.08;79.16
72414;BME280;60995;52.154;4.498;2023-03-15T02:22:31;101280.06;;;4.06;79.39
72414;BME280;60995;52.154;4.498;2023-03-15T02:25:35;101282.53;;;4.11;79.82
72414;BME280;60995;52.154;4.498;2023-03-15T02:27:56;101281.91;;;4.22;78.96
72414;BME280;60995;52.154;4.498;2023-03-15T02:30:13;101278.00;;;4.11;78.99
72414;BME280;60995;52.154;4.498;2023-03-15T02:32:30;101286.16;;;4.10;78.86
72414;BME280;60995;52.154;4.498;2023-03-15T02:34:47;101287.38;;;4.04;78.89
72414;BME280;60995;52.154;4.498;2023-03-15T02:37:03;101289.78;;;4.09;78.67
72414;BME280;60995;52.154;4.498;2023-03-15T02:39:21;101296.38;;;4.03;78.42
72414;BME280;60995;52.154;4.498;2023-03-15T02:41:40;101298.66;;;3.93;78.47
72414;BME280;60995;52.154;4.498;2023-03-15T02:44:05;101298.94;;;3.89;78.94
72414;BME280;60995;52.154;4.498;2023-03-15T02:46:26;101299.97;;;3.86;79.19
72414;BME280;60995;52.154;4.498;2023-03-15T02:48:44;101306.19;;;3.87;79.90
72414;BME280;60995;52.154;4.498;2023-03-15T02:51:02;101299.56;;;3.94;79.39
72414;BME280;60995;52.154;4.498;2023-03-15T02:53:19;101313.19;;;4.07;79.90
72414;BME280;60995;52.154;4.498;2023-03-15T02:55:35;101315.06;;;4.05;79.24
72414;BME280;60995;52.154;4.498;2023-03-15T02:57:51;101316.53;;;4.10;79.32
72414;BME280;60995;52.154;4.498;2023-03-15T03:00:08;101331.22;;;4.21;79.48
72414;BME280;60995;52.154;4.498;2023-03-15T03:02:29;101329.97;;;4.10;79.29
72414;BME280;60995;52.154;4.498;2023-03-15T03:04:45;101329.22;;;4.08;79.60
72414;BME280;60995;52.154;4.498;2023-03-15T03:07:02;101333.47;;;4.12;79.50
72414;BME280;60995;52.154;4.498;2023-03-15T03:09:19;101341.59;;;4.11;79.89
72414;BME280;60995;52.154;4.498;2023-03-15T03:11:35;101346.78;;;4.14;79.94
72414;BME280;60995;52.154;4.498;2023-03-15T03:13:52;101356.72;;;4.29;80.21
72414;BME280;60995;52.154;4.498;2023-03-15T03:16:09;101368.59;;;4.41;79.92
72414;BME280;60995;52.154;4.498;2023-03-15T03:18:28;101365.25;;;4.54;79.60
72414;BME280;60995;52.154;4.498;2023-03-15T03:20:46;101370.34;;;4.42;77.71
72414;BME280;60995;52.154;4.498;2023-03-15T03:23:02;101381.44;;;4.52;75.71
72414;BME280;60995;52.154;4.498;2023-03-15T03:25:21;101376.94;;;4.53;75.15
72414;BME280;60995;52.154;4.498;2023-03-15T03:27:42;101386.47;;;4.42;75.08
72414;BME280;60995;52.154;4.498;2023-03-15T03:29:58;101388.63;;;4.52;74.25
72414;BME280;60995;52.154;4.498;2023-03-15T03:32:15;101389.75;;;4.47;73.89
72414;BME280;60995;52.154;4.498;2023-03-15T03:34:31;101376.22;;;4.33;73.84
72414;BME280;60995;52.154;4.498;2023-03-15T03:36:47;101391.97;;;4.39;73.98
72414;BME280;60995;52.154;4.498;2023-03-15T03:39:04;101389.19;;;4.25;73.42
72414;BME280;60995;52.154;4.498;2023-03-15T03:41:20;101387.00;;;4.16;73.86
72414;BME280;60995;52.154;4.498;2023-03-15T03:43:36;101402.53;;;3.93;74.77
72414;BME280;60995;52.154;4.498;2023-03-15T03:45:53;101402.69;;;3.90;74.81
72414;BME280;60995;52.154;4.498;2023-03-15T03:48:09;101405.91;;;3.79;75.54
72414;BME280;60995;52.154;4.498;2023-03-15T03:50:25;101404.56;;;3.70;75.94
72414;BME280;60995;52.154;4.498;2023-03-15T03:52:42;101406.88;;;3.78;76.41
72414;BME280;60995;52.154;4.498;2023-03-15T03:54:59;101415.91;;;3.77;76.68
72414;BME280;60995;52.154;4.498;2023-03-15T03:57:15;101422.13;;;3.77;76.40
72414;BME280;60995;52.154;4.498;2023-03-15T03:59:31;101429.84;;;3.84;76.40
72414;BME280;60995;52.154;4.498;2023-03-15T04:01:47;101428.50;;;3.92;76.77
72414;BME280;60995;52.154;4.498;2023-03-15T04:04:04;101438.78;;;4.02;76.45
72414;BME280;60995;52.154;4.498;2023-03-15T04:06:20;101438.59;;;4.05;76.58
72414;BME280;60995;52.154;4.498;2023-03-15T04:08:39;101435.06;;;4.04;75.99
72414;BME280;60995;52.154;4.498;2023-03-15T04:10:57;101437.56;;;4.07;76.22
72414;BME280;60995;52.154;4.498;2023-03-15T04:13:13;101449.41;;;4.21;76.24
72414;BME280;60995;52.154;4.498;2023-03-15T04:15:30;101447.41;;;4.24;76.41
72414;BME280;60995;52.154;4.498;2023-03-15T04:17:49;101457.75;;;4.32;76.94
72414;BME280;60995;52.154;4.498;2023-03-15T04:20:10;101461.78;;;4.23;76.71
72414;BME280;60995;52.154;4.498;2023-03-15T04:22:27;101468.50;;;4.32;76.56
72414;BME280;60995;52.154;4.498;2023-03-15T04:24:44;101467.09;;;4.25;76.57
72414;BME280;60995;52.154;4.498;2023-03-15T04:27:01;101467.78;;;4.28;76.75
72414;BME280;60995;52.154;4.498;2023-03-15T04:29:17;101476.88;;;4.26;77.19
72414;BME280;60995;52.154;4.498;2023-03-15T04:31:33;101475.09;;;4.26;77.32
72414;BME280;60995;52.154;4.498;2023-03-15T04:33:53;101477.69;;;4.28;77.17
72414;BME280;60995;52.154;4.498;2023-03-15T04:36:09;101463.31;;;4.29;76.85
72414;BME280;60995;52.154;4.498;2023-03-15T04:38:33;101480.91;;;4.35;76.40
72414;BME280;60995;52.154;4.498;2023-03-15T04:40:50;101482.88;;;4.31;75.71
72414;BME280;60995;52.154;4.498;2023-03-15T04:43:07;101484.13;;;4.41;75.54
72414;BME280;60995;52.154;4.498;2023-03-15T04:45:24;101488.13;;;4.34;75.24
72414;BME280;60995;52.154;4.498;2023-03-15T04:47:42;101485.84;;;4.26;75.11
72414;BME280;60995;52.154;4.498;2023-03-15T04:49:58;101484.81;;;4.29;74.71
72414;BME280;60995;52.154;4.498;2023-03-15T04:52:14;101487.53;;;4.27;74.22
72414;BME280;60995;52.154;4.498;2023-03-15T04:54:31;101490.41;;;4.24;73.83
72414;BME280;60995;52.154;4.498;2023-03-15T04:56:47;101488.03;;;4.18;73.32
72414;BME280;60995;52.154;4.498;2023-03-15T04:59:03;101491.59;;;4.19;74.16
72414;BME280;60995;52.154;4.498;2023-03-15T05:01:24;101491.59;;;4.19;73.86
72414;BME280;60995;52.154;4.498;2023-03-15T05:03:46;101495.53;;;4.29;74.49
72414;BME280;60995;52.154;4.498;2023-03-15T05:06:02;101500.91;;;4.29;74.12
72414;BME280;60995;52.154;4.498;2023-03-15T05:08:22;101510.50;;;4.51;74.12
72414;BME280;60995;52.154;4.498;2023-03-15T05:10:39;101518.56;;;4.51;73.59
72414;BME280;60995;52.154;4.498;2023-03-15T05:12:55;101521.34;;;4.49;72.60
72414;BME280;60995;52.154;4.498;2023-03-15T05:15:12;101518.63;;;4.67;71.50
72414;BME280;60995;52.154;4.498;2023-03-15T05:17:28;101524.47;;;4.57;71.70
72414;BME280;60995;52.154;4.498;2023-03-15T05:19:44;101527.97;;;4.59;71.53
72414;BME280;60995;52.154;4.498;2023-03-15T05:22:01;101527.31;;;4.38;71.60
72414;BME280;60995;52.154;4.498;2023-03-15T05:24:19;101525.72;;;4.34;71.05
72414;BME280;60995;52.154;4.498;2023-03-15T05:26:36;101525.56;;;4.20;72.25
72414;BME280;60995;52.154;4.498;2023-03-15T05:28:52;101539.16;;;4.17;73.16
72414;BME280;60995;52.154;4.498;2023-03-15T05:31:08;101532.03;;;4.16;72.84
72414;BME280;60995;52.154;4.498;2023-03-15T05:33:26;101533.53;;;4.04;73.79
72414;BME280;60995;52.154;4.498;2023-03-15T05:35:43;101535.88;;;3.92;74.15
72414;BME280;60995;52.154;4.498;2023-03-15T05:38:00;101540.00;;;4.00;74.64
72414;BME280;60995;52.154;4.498;2023-03-15T05:40:16;101541.97;;;3.96;75.73
72414;BME280;60995;52.154;4.498;2023-03-15T05:42:33;101553.72;;;3.76;76.51
72414;BME280;60995;52.154;4.498;2023-03-15T05:44:50;101559.00;;;3.77;76.94
72414;BME280;60995;52.154;4.498;2023-03-15T05:47:07;101562.94;;;3.70;76.97
72414;BME280;60995;52.154;4.498;2023-03-15T05:49:23;101564.59;;;3.73;76.26
72414;BME280;60995;52.154;4.498;2023-03-15T05:51:40;101565.41;;;3.75;76.19
72414;BME280;60995;52.154;4.498;2023-03-15T05:53:58;101567.88;;;3.79;76.45
72414;BME280;60995;52.154;4.498;2023-03-15T05:56:14;101570.22;;;3.68;75.74
72414;BME280;60995;52.154;4.498;2023-03-15T05:58:30;101572.97;;;3.67;76.06
72414;BME280;60995;52.154;4.498;2023-03-15T06:00:48;101574.56;;;3.52;76.28
72414;BME280;60995;52.154;4.498;2023-03-15T06:03:04;101578.53;;;3.62;76.55
72414;BME280;60995;52.154;4.498;2023-03-15T06:05:21;101595.75;;;3.58;76.42
72414;BME280;60995;52.154;4.498;2023-03-15T06:07:38;101594.00;;;3.57;76.67
72414;BME280;60995;52.154;4.498;2023-03-15T06:09:54;101599.38;;;3.57;76.57
72414;BME280;60995;52.154;4.498;2023-03-15T06:12:11;101604.16;;;3.50;76.63
72414;BME280;60995;52.154;4.498;2023-03-15T06:14:27;101618.88;;;3.60;77.41
72414;BME280;60995;52.154;4.498;2023-03-15T06:16:43;101616.41;;;3.56;77.22
72414;BME280;60995;52.154;4.498;2023-03-15T06:19:00;101617.13;;;3.59;76.83
72414;BME280;60995;52.154;4.498;2023-03-15T06:21:16;101628.66;;;3.80;76.38
72414;BME280;60995;52.154;4.498;2023-03-15T06:23:32;101628.03;;;4.12;76.09
72414;BME280;60995;52.154;4.498;2023-03-15T06:25:48;101627.13;;;5.17;76.61
72414;BME280;60995;52.154;4.498;2023-03-15T06:28:05;101630.25;;;6.67;75.78
72414;BME280;60995;52.154;4.498;2023-03-15T06:30:21;101634.16;;;7.64;69.16
72414;BME280;60995;52.154;4.498;2023-03-15T06:32:37;101631.56;;;8.85;66.27
72414;BME280;60995;52.154;4.498;2023-03-15T06:34:54;101635.09;;;9.50;58.31
72414;BME280;60995;52.154;4.498;2023-03-15T06:37:10;101643.34;;;10.47;57.15
72414;BME280;60995;52.154;4.498;2023-03-15T06:39:28;101641.81;;;11.36;52.83
72414;BME280;60995;52.154;4.498;2023-03-15T06:41:45;101643.84;;;12.12;51.39
72414;BME280;60995;52.154;4.498;2023-03-15T06:44:01;101635.47;;;12.90;49.85
72414;BME280;60995;52.154;4.498;2023-03-15T06:46:18;101629.03;;;13.84;46.92
72414;BME280;60995;52.154;4.498;2023-03-15T06:48:34;101640.78;;;14.74;44.59
72414;BME280;60995;52.154;4.498;2023-03-15T06:50:51;101645.84;;;15.64;43.25
72414;BME280;60995;52.154;4.498;2023-03-15T06:53:07;101649.91;;;16.87;41.54
72414;BME280;60995;52.154;4.498;2023-03-15T06:55:23;101645.00;;;17.52;37.72
72414;BME280;60995;52.154;4.498;2023-03-15T06:57:40;101641.75;;;18.42;35.85
72414;BME280;60995;52.154;4.498;2023-03-15T06:59:56;101646.41;;;18.91;35.21
72414;BME280;60995;52.154;4.498;2023-03-15T07:02:15;101649.13;;;19.16;34.51
72414;BME280;60995;52.154;4.498;2023-03-15T07:04:33;101642.44;;;18.69;33.61
72414;BME280;60995;52.154;4.498;2023-03-15T07:06:49;101640.44;;;19.52;33.38
72414;BME280;60995;52.154;4.498;2023-03-15T07:09:05;101644.28;;;20.45;31.37
72414;BME280;60995;52.154;4.498;2023-03-15T07:11:22;101647.81;;;21.01;31.72
72414;BME280;60995;52.154;4.498;2023-03-15T07:13:38;101653.81;;;20.43;31.33
72414;BME280;60995;52.154;4.498;2023-03-15T07:15:55;101662.66;;;20.53;29.83
72414;BME280;60995;52.154;4.498;2023-03-15T07:18:11;101657.53;;;20.50;30.78
72414;BME280;60995;52.154;4.498;2023-03-15T07:20:28;101652.34;;;20.24;31.48
72414;BME280;60995;52.154;4.498;2023-03-15T07:22:44;101657.22;;;20.45;30.39
72414;BME280;60995;52.154;4.498;2023-03-15T07:25:00;101660.56;;;19.61;31.80
72414;BME280;60995;52.154;4.498;2023-03-15T07:27:17;101670.19;;;20.05;29.87
72414;BME280;60995;52.154;4.498;2023-03-15T07:29:33;101668.91;;;19.84;30.89
72414;BME280;60995;52.154;4.498;2023-03-15T07:31:50;101670.31;;;19.72;32.18
72414;BME280;60995;52.154;4.498;2023-03-15T07:34:07;101673.81;;;20.37;30.34
72414;BME280;60995;52.154;4.498;2023-03-15T07:36:23;101679.16;;;20.07;29.63
72414;BME280;60995;52.154;4.498;2023-03-15T07:38:39;101677.31;;;18.77;31.48
72414;BME280;60995;52.154;4.498;2023-03-15T07:40:56;101681.63;;;19.04;31.53
72414;BME280;60995;52.154;4.498;2023-03-15T07:43:13;101684.13;;;20.43;30.37
72414;BME280;60995;52.154;4.498;2023-03-15T07:45:29;101686.13;;;22.08;27.91
72414;BME280;60995;52.154;4.498;2023-03-15T07:47:46;101691.94;;;23.37;25.97
72414;BME280;60995;52.154;4.498;2023-03-15T07:50:03;101701.25;;;20.53;28.70
72414;BME280;60995;52.154;4.498;2023-03-15T07:52:22;101698.84;;;22.54;26.60
72414;BME280;60995;52.154;4.498;2023-03-15T07:54:38;101704.50;;;22.31;26.91
72414;BME280;60995;52.154;4.498;2023-03-15T07:56:55;101704.38;;;22.54;25.35
72414;BME280;60995;52.154;4.498;2023-03-15T07:59:11;101712.19;;;21.16;27.82
72414;BME280;60995;52.154;4.498;2023-03-15T08:01:28;101708.28;;;23.60;25.28
72414;BME280;60995;52.154;4.498;2023-03-15T08:03:44;101713.91;;;21.85;26.08
72414;BME280;60995;52.154;4.498;2023-03-15T08:06:00;101717.38;;;22.60;25.97
72414;BME280;60995;52.154;4.498;2023-03-15T08:08:17;101711.66;;;22.25;25.88
72414;BME280;60995;52.154;4.498;2023-03-15T08:10:34;101720.84;;;23.27;24.41
72414;BME280;60995;52.154;4.498;2023-03-15T08:12:50;101733.66;;;23.13;24.76
72414;BME280;60995;52.154;4.498;2023-03-15T08:15:08;101724.84;;;21.93;27.04
72414;BME280;60995;52.154;4.498;2023-03-15T08:17:28;101733.22;;;22.15;26.58
72414;BME280;60995;52.154;4.498;2023-03-15T08:19:44;101729.91;;;23.00;25.94
72414;BME280;60995;52.154;4.498;2023-03-15T08:22:01;101731.38;;;24.09;24.07
72414;BME280;60995;52.154;4.498;2023-03-15T08:24:17;101736.03;;;24.50;23.91
72414;BME280;60995;52.154;4.498;2023-03-15T08:26:33;101752.41;;;25.74;22.54
72414;BME280;60995;52.154;4.498;2023-03-15T08:28:49;101747.31;;;24.42;23.53
72414;BME280;60995;52.154;4.498;2023-03-15T08:31:09;101745.25;;;23.45;25.03
72414;BME280;60995;52.154;4.498;2023-03-15T08:33:28;101748.00;;;24.09;24.16
72414;BME280;60995;52.154;4.498;2023-03-15T08:35:45;101748.56;;;25.75;22.66
72414;BME280;60995;52.154;4.498;2023-03-15T08:38:07;101750.66;;;23.32;24.57
72414;BME280;60995;52.154;4.498;2023-03-15T08:40:24;101752.28;;;23.76;24.12
72414;BME280;60995;52.154;4.498;2023-03-15T08:42:40;101752.88;;;21.90;26.68
72414;BME280;60995;52.154;4.498;2023-03-15T08:44:57;101753.81;;;21.83;26.71
72414;BME280;60995;52.154;4.498;2023-03-15T08:47:14;101742.50;;;23.45;25.03
72414;BME280;60995;52.154;4.498;2023-03-15T08:49:31;101745.56;;;25.30;23.29
72414;BME280;60995;52.154;4.498;2023-03-15T08:51:47;101741.19;;;24.11;24.38
72414;BME280;60995;52.154;4.498;2023-03-15T08:54:04;101745.06;;;26.00;22.40
72414;BME280;60995;52.154;4.498;2023-03-15T08:56:20;101747.91;;;25.33;22.07
72414;BME280;60995;52.154;4.498;2023-03-15T08:58:36;101751.94;;;24.21;23.72
72414;BME280;60995;52.154;4.498;2023-03-15T09:00:53;101741.88;;;23.50;24.18
72414;BME280;60995;52.154;4.498;2023-03-15T09:03:09;101745.31;;;24.91;23.06
72414;BME280;60995;52.154;4.498;2023-03-15T09:05:26;101746.84;;;25.20;21.47
72414;BME280;60995;52.154;4.498;2023-03-15T09:07:44;101732.31;;;26.76;21.03
72414;BME280;60995;52.154;4.498;2023-03-15T09:10:01;101735.44;;;24.13;22.72
72414;BME280;60995;52.154;4.498;2023-03-15T09:12:20;101732.00;;;26.07;21.29
72414;BME280;60995;52.154;4.498;2023-03-15T09:14:36;101731.47;;;25.65;21.05
72414;BME280;60995;52.154;4.498;2023-03-15T09:16:53;101733.63;;;25.49;21.14
72414;BME280;60995;52.154;4.498;2023-03-15T09:19:09;101732.50;;;23.79;23.54
72414;BME280;60995;52.154;4.498;2023-03-15T09:21:25;101731.69;;;23.57;23.58
72414;BME280;60995;52.154;4.498;2023-03-15T09:23:42;101722.34;;;24.42;23.36
72414;BME280;60995;52.154;4.498;2023-03-15T09:25:58;101729.88;;;24.06;22.77
72414;BME280;60995;52.154;4.498;2023-03-15T09:28:15;101725.06;;;23.23;23.78
72414;BME280;60995;52.154;4.498;2023-03-15T09:30:32;101735.66;;;22.25;25.40
72414;BME280;60995;52.154;4.498;2023-03-15T09:32:52;101733.78;;;22.25;25.62
72414;BME280;60995;52.154;4.498;2023-03-15T09:35:12;101735.59;;;22.91;23.77
72414;BME280;60995;52.154;4.498;2023-03-15T09:37:31;101753.47;;;20.55;25.67
72414;BME280;60995;52.154;4.498;2023-03-15T09:39:47;101754.28;;;19.92;25.58
72414;BME280;60995;52.154;4.498;2023-03-15T09:42:55;101748.50;;;22.84;24.42
72414;BME280;60995;52.154;4.498;2023-03-15T09:45:26;101762.56;;;21.56;25.69
72414;BME280;60995;52.154;4.498;2023-03-15T09:48:27;101743.88;;;22.91;24.16
72414;BME280;60995;52.154;4.498;2023-03-15T09:50:53;101752.97;;;21.97;23.87
72414;BME280;60995;52.154;4.498;2023-03-15T09:53:22;101750.22;;;20.51;24.22
72414;BME280;60995;52.154;4.498;2023-03-15T09:55:58;101761.59;;;19.27;23.76
72414;BME280;60995;52.154;4.498;2023-03-15T09:58:23;101762.44;;;19.44;23.67
72414;BME280;60995;52.154;4.498;2023-03-15T10:00:53;101766.44;;;20.06;24.69
72414;BME280;60995;52.154;4.498;2023-03-15T10:06:30;101773.84;;;17.53;27.48
72414;BME280;60995;52.154;4.498;2023-03-15T10:08:55;101761.22;;;18.97;26.27
72414;BME280;60995;52.154;4.498;2023-03-15T10:11:33;101761.31;;;18.12;27.74
72414;BME280;60995;52.154;4.498;2023-03-15T10:19:24;101766.81;;;20.43;24.57
72414;BME280;60995;52.154;4.498;2023-03-15T10:21:53;101769.78;;;18.78;24.98
72414;BME280;60995;52.154;4.498;2023-03-15T10:24:24;101784.97;;;18.98;24.16
72414;BME280;60995;52.154;4.498;2023-03-15T10:26:50;101786.47;;;18.25;25.15
72414;BME280;60995;52.154;4.498;2023-03-15T10:29:14;101778.09;;;19.44;24.92
72414;BME280;60995;52.154;4.498;2023-03-15T10:31:36;101780.50;;;21.14;23.12
72414;BME280;60995;52.154;4.498;2023-03-15T10:33:55;101787.00;;;19.54;26.35
72414;BME280;60995;52.154;4.498;2023-03-15T10:36:20;101790.69;;;20.11;24.97
72414;BME280;60995;52.154;4.498;2023-03-15T10:38:38;101787.50;;;21.02;23.54
72414;BME280;60995;52.154;4.498;2023-03-15T10:40:58;101797.25;;;20.10;24.25
72414;BME280;60995;52.154;4.498;2023-03-15T10:46:12;101800.47;;;20.93;24.04
72414;BME280;60995;52.154;4.498;2023-03-15T10:48:53;101807.63;;;19.75;25.55
72414;BME280;60995;52.154;4.498;2023-03-15T10:51:29;101800.69;;;20.52;25.57
72414;BME280;60995;52.154;4.498;2023-03-15T10:54:33;101811.66;;;20.99;24.90
72414;BME280;60995;52.154;4.498;2023-03-15T10:59:24;101809.66;;;20.85;25.86
72414;BME280;60995;52.154;4.498;2023-03-15T11:01:45;101808.69;;;19.65;26.82
72414;BME280;60995;52.154;4.498;2023-03-15T11:04:13;101816.94;;;19.74;27.24
72414;BME280;60995;52.154;4.498;2023-03-15T11:06:40;101806.88;;;17.96;28.03
72414;BME280;60995;52.154;4.498;2023-03-15T11:09:14;101827.84;;;17.79;27.17
72414;BME280;60995;52.154;4.498;2023-03-15T11:14:12;101823.84;;;16.75;28.35
72414;BME280;60995;52.154;4.498;2023-03-15T11:16:34;101832.66;;;17.15;25.59
72414;BME280;60995;52.154;4.498;2023-03-15T11:19:00;101833.78;;;15.24;27.74
72414;BME280;60995;52.154;4.498;2023-03-15T11:21:19;101826.41;;;15.64;29.63
72414;BME280;60995;52.154;4.498;2023-03-15T11:23:46;101837.38;;;16.21;28.25
72414;BME280;60995;52.154;4.498;2023-03-15T11:26:07;101823.91;;;16.56;27.06
72414;BME280;60995;52.154;4.498;2023-03-15T11:28:32;101819.31;;;17.38;26.56
72414;BME280;60995;52.154;4.498;2023-03-15T11:30:52;101825.22;;;17.25;27.45
72414;BME280;60995;52.154;4.498;2023-03-15T11:33:37;101826.59;;;15.43;27.14
72414;BME280;60995;52.154;4.498;2023-03-15T11:36:02;101828.59;;;15.01;29.15
72414;BME280;60995;52.154;4.498;2023-03-15T11:38:29;101836.94;;;15.49;26.71
72414;BME280;60995;52.154;4.498;2023-03-15T11:40:52;101820.94;;;14.85;27.11
72414;BME280;60995;52.154;4.498;2023-03-15T11:43:14;101825.16;;;14.59;28.74
72414;BME280;60995;52.154;4.498;2023-03-15T11:45:41;101826.84;;;14.81;28.77
72414;BME280;60995;52.154;4.498;2023-03-15T11:48:10;101822.50;;;15.86;30.05
72414;BME280;60995;52.154;4.498;2023-03-15T11:50:32;101822.75;;;16.02;29.19
72414;BME280;60995;52.154;4.498;2023-03-15T11:52:50;101816.59;;;15.81;30.70
72414;BME280;60995;52.154;4.498;2023-03-15T11:55:15;101823.19;;;15.98;29.00
72414;BME280;60995;52.154;4.498;2023-03-15T11:57:46;101825.53;;;15.83;29.04
72414;BME280;60995;52.154;4.498;2023-03-15T12:10:56;101831.03;;;15.34;29.56
72414;BME280;60995;52.154;4.498;2023-03-15T12:13:23;101834.34;;;15.08;30.17
72414;BME280;60995;52.154;4.498;2023-03-15T12:15:43;101828.59;;;15.21;29.21
72414;BME280;60995;52.154;4.498;2023-03-15T12:18:04;101834.44;;;14.36;30.21
72414;BME280;60995;52.154;4.498;2023-03-15T12:20:35;101839.88;;;14.27;31.35
72414;BME280;60995;52.154;4.498;2023-03-15T12:23:12;101837.84;;;13.46;30.07
72414;BME280;60995;52.154;4.498;2023-03-15T12:25:37;101840.09;;;12.41;33.00
72414;BME280;60995;52.154;4.498;2023-03-15T12:28:04;101835.16;;;12.90;33.77
72414;BME280;60995;52.154;4.498;2023-03-15T12:30:30;101843.94;;;13.59;32.70
72414;BME280;60995;52.154;4.498;2023-03-15T12:32:52;101841.50;;;12.91;32.21
72414;BME280;60995;52.154;4.498;2023-03-15T12:35:15;101838.75;;;13.02;32.54
72414;BME280;60995;52.154;4.498;2023-03-15T12:39:59;101841.31;;;12.60;31.17
72414;BME280;60995;52.154;4.498;2023-03-15T12:44:47;101841.63;;;13.22;32.27
72414;BME280;60995;52.154;4.498;2023-03-15T12:47:13;101833.06;;;12.94;33.17
72414;BME280;60995;52.154;4.498;2023-03-15T12:49:32;101838.63;;;12.37;33.91